PWSweather.com
Personal Weather Stations
Station Observations
BANEKERE1
AntwerpenBE

AntwerpenBE

Lat: 51.2809101, Lon: 4.4202713

Elevation: 40

Station Type:

http://www.akker.be

Latest ConditionsUpdated 9:10:01 AM GMT+01:01 Thursday, Jan 29, 2015
Currently Today's Max Today's Min Today's Average
Temperature 36.8°F2.7°C 39.8°F4.3°C 36.4°F2.4°C 37.3°F2.9°C
Dew Point 33.6°F0.9°C 33.6°F0.9°C 30.9°F-0.6°C 32.2°F0.1°C
Winds 8.1 mph SSW13.0 kmh SSW 15.0 mph SSW24.1 kmh SSW - 7.2 mph 11.6 kmh
Wind Gusts 12.7 mph20.4 kmh 20.7 mph33.3 kmh - -
Humidity 88% 88% 72% 82%
Pressure 29.25 in990.5 mb 29.52 in999.7 mb 29.25 in990.5 mb -
Hour Temp Dew Point Humidity Winds Wind Gusts Pressure Precip Precip Rate Daily Precip Total
09:10 AM 36.8°F2.7°C 33.6°F0.9°C 88% 8.1 mph SSW13.0 kmh SSW 12.7 mph20.4 kmh 29.25 in990.5 mb 0.00 in0.0 mm 0.00 in/hr0.0 mm/hr 0.00 in0.0 mm
09:00 AM 36.8°F2.7°C 33.6°F0.9°C 88% 8.1 mph SSW13.0 kmh SSW 18.4 mph29.6 kmh 29.27 in991.2 mb 0.00 in0.0 mm 0.00 in/hr0.0 mm/hr 0.00 in0.0 mm
08:50 AM 36.9°F2.7°C 33.4°F0.8°C 87% 8.1 mph SSW13.0 kmh SSW 10.4 mph16.7 kmh 29.27 in991.2 mb 0.00 in0.0 mm 0.00 in/hr0.0 mm/hr 0.00 in0.0 mm
08:40 AM 37.0°F2.8°C 33.5°F0.8°C 87% 6.9 mph SW11.1 kmh SW 12.7 mph20.4 kmh 29.28 in991.5 mb 0.00 in0.0 mm 0.00 in/hr0.0 mm/hr 0.00 in0.0 mm
08:30 AM 37.0°F2.8°C 33.5°F0.8°C 87% 8.1 mph SW13.0 kmh SW 12.7 mph20.4 kmh 29.28 in991.5 mb 0.00 in0.0 mm 0.00 in/hr0.0 mm/hr 0.00 in0.0 mm
08:20 AM 37.0°F2.8°C 33.5°F0.8°C 87% 10.4 mph SSW16.7 kmh SSW 16.1 mph25.9 kmh 29.29 in991.9 mb 0.00 in0.0 mm 0.00 in/hr0.0 mm/hr 0.00 in0.0 mm
08:10 AM 37.1°F2.8°C 33.6°F0.9°C 87% 8.1 mph SW13.0 kmh SW 11.5 mph18.5 kmh 29.29 in991.9 mb 0.00 in0.0 mm 0.00 in/hr0.0 mm/hr 0.00 in0.0 mm
08:00 AM 37.1°F2.8°C 33.6°F0.9°C 87% 8.1 mph WSW13.0 kmh WSW 13.8 mph22.2 kmh 29.29 in991.9 mb 0.00 in0.0 mm 0.00 in/hr0.0 mm/hr 0.00 in0.0 mm
07:50 AM 37.1°F2.8°C 33.3°F0.7°C 86% 8.1 mph S13.0 kmh S 8.1 mph13.0 kmh 29.30 in992.2 mb 0.00 in0.0 mm 0.00 in/hr0.0 mm/hr 0.00 in0.0 mm
07:40 AM 37.1°F2.8°C 33.3°F0.7°C 86% 8.1 mph SW13.0 kmh SW 11.5 mph18.5 kmh 29.31 in992.6 mb 0.00 in0.0 mm 0.00 in/hr0.0 mm/hr 0.00 in0.0 mm
07:30 AM 37.1°F2.8°C 33.3°F0.7°C 86% 8.1 mph SSW13.0 kmh SSW 15.0 mph24.1 kmh 29.31 in992.6 mb 0.00 in0.0 mm 0.00 in/hr0.0 mm/hr 0.00 in0.0 mm
07:20 AM 37.3°F2.9°C 33.2°F0.7°C 85% 6.9 mph SW11.1 kmh SW 12.7 mph20.4 kmh 29.32 in992.9 mb 0.00 in0.0 mm 0.00 in/hr0.0 mm/hr 0.00 in0.0 mm
07:10 AM 37.4°F3.0°C 33.3°F0.7°C 85% 8.1 mph SSW13.0 kmh SSW 15.0 mph24.1 kmh 29.32 in992.9 mb 0.00 in0.0 mm 0.00 in/hr0.0 mm/hr 0.00 in0.0 mm
07:00 AM 37.5°F3.1°C 33.4°F0.8°C 85% 6.9 mph SW11.1 kmh SW 12.7 mph20.4 kmh 29.32 in992.9 mb 0.00 in0.0 mm 0.00 in/hr0.0 mm/hr 0.00 in0.0 mm
06:50 AM 37.6°F3.1°C 33.2°F0.7°C 84% 8.1 mph SSW13.0 kmh SSW 11.5 mph18.5 kmh 29.32 in992.9 mb 0.00 in0.0 mm 0.00 in/hr0.0 mm/hr 0.00 in0.0 mm
06:40 AM 37.7°F3.2°C 33.3°F0.7°C 84% 8.1 mph SW13.0 kmh SW 11.5 mph18.5 kmh 29.33 in993.2 mb 0.00 in0.0 mm 0.00 in/hr0.0 mm/hr 0.00 in0.0 mm
06:30 AM 37.8°F3.2°C 33.4°F0.8°C 84% 6.9 mph SW11.1 kmh SW 12.7 mph20.4 kmh 29.34 in993.6 mb 0.00 in0.0 mm 0.00 in/hr0.0 mm/hr 0.00 in0.0 mm
06:20 AM 37.8°F3.2°C 33.4°F0.8°C 84% 8.1 mph SSW13.0 kmh SSW 13.8 mph22.2 kmh 29.34 in993.6 mb 0.00 in0.0 mm 0.00 in/hr0.0 mm/hr 0.00 in0.0 mm
06:10 AM 37.6°F3.1°C 32.9°F0.5°C 83% 8.1 mph SW13.0 kmh SW 15.0 mph24.1 kmh 29.34 in993.6 mb 0.00 in0.0 mm 0.00 in/hr0.0 mm/hr 0.00 in0.0 mm
06:00 AM 37.5°F3.1°C 32.8°F0.4°C 83% 15.0 mph SSW24.1 kmh SSW 20.7 mph33.3 kmh 29.35 in993.9 mb 0.00 in0.0 mm 0.00 in/hr0.0 mm/hr 0.00 in0.0 mm
05:50 AM 37.5°F3.1°C 32.8°F0.4°C 83% 8.1 mph SSW13.0 kmh SSW 12.7 mph20.4 kmh 29.35 in993.9 mb 0.00 in0.0 mm 0.00 in/hr0.0 mm/hr 0.00 in0.0 mm
05:40 AM 37.5°F3.1°C 32.5°F0.3°C 82% 9.2 mph SSW14.8 kmh SSW 16.1 mph25.9 kmh 29.35 in993.9 mb 0.00 in0.0 mm 0.00 in/hr0.0 mm/hr 0.00 in0.0 mm
05:30 AM 37.5°F3.1°C 32.5°F0.3°C 82% 5.8 mph S9.3 kmh S 11.5 mph18.5 kmh 29.36 in994.2 mb 0.00 in0.0 mm 0.00 in/hr0.0 mm/hr 0.00 in0.0 mm
05:20 AM 37.7°F3.2°C 32.7°F0.4°C 82% 5.8 mph N9.3 kmh N 12.7 mph20.4 kmh 29.37 in994.6 mb 0.00 in0.0 mm 0.00 in/hr0.0 mm/hr 0.00 in0.0 mm
05:10 AM 37.6°F3.1°C 32.6°F0.3°C 82% 6.9 mph SW11.1 kmh SW 13.8 mph22.2 kmh 29.37 in994.6 mb 0.00 in0.0 mm 0.00 in/hr0.0 mm/hr 0.00 in0.0 mm
05:00 AM 37.4°F3.0°C 32.4°F0.2°C 82% 8.1 mph SW13.0 kmh SW 12.7 mph20.4 kmh 29.38 in994.9 mb 0.00 in0.0 mm 0.00 in/hr0.0 mm/hr 0.00 in0.0 mm
04:50 AM 37.2°F2.9°C 32.5°F0.3°C 83% 9.2 mph SW14.8 kmh SW 12.7 mph20.4 kmh 29.38 in994.9 mb 0.00 in0.0 mm 0.00 in/hr0.0 mm/hr 0.00 in0.0 mm
04:40 AM 36.9°F2.7°C 32.2°F0.1°C 83% 8.1 mph SW13.0 kmh SW 13.8 mph22.2 kmh 29.39 in995.3 mb 0.00 in0.0 mm 0.00 in/hr0.0 mm/hr 0.00 in0.0 mm
04:30 AM 36.6°F2.6°C 32.0°F0.0°C 83% 8.1 mph S13.0 kmh S 15.0 mph24.1 kmh 29.39 in995.3 mb 0.00 in0.0 mm 0.00 in/hr0.0 mm/hr 0.00 in0.0 mm
04:20 AM 36.5°F2.5°C 31.8°F-0.1°C 83% 6.9 mph SW11.1 kmh SW 11.5 mph18.5 kmh 29.40 in995.6 mb 0.00 in0.0 mm 0.00 in/hr0.0 mm/hr 0.00 in0.0 mm
04:10 AM 36.4°F2.4°C 31.4°F-0.3°C 82% 5.8 mph S9.3 kmh S 5.8 mph9.3 kmh 29.41 in995.9 mb 0.00 in0.0 mm 0.00 in/hr0.0 mm/hr 0.00 in0.0 mm
04:00 AM 36.4°F2.4°C 31.4°F-0.3°C 82% 4.6 mph SSW7.4 kmh SSW 10.4 mph16.7 kmh 29.42 in996.3 mb 0.00 in0.0 mm 0.00 in/hr0.0 mm/hr 0.00 in0.0 mm
03:50 AM 36.4°F2.4°C 31.1°F-0.5°C 81% 5.8 mph WSW9.3 kmh WSW 9.2 mph14.8 kmh 29.42 in996.3 mb 0.00 in0.0 mm 0.00 in/hr0.0 mm/hr 0.00 in0.0 mm
03:40 AM 36.4°F2.4°C 31.1°F-0.5°C 81% 8.1 mph S13.0 kmh S 13.8 mph22.2 kmh 29.42 in996.3 mb 0.00 in0.0 mm 0.00 in/hr0.0 mm/hr 0.00 in0.0 mm
03:30 AM 36.4°F2.4°C 31.1°F-0.5°C 81% 6.9 mph SSW11.1 kmh SSW 12.7 mph20.4 kmh 29.43 in996.6 mb 0.00 in0.0 mm 0.00 in/hr0.0 mm/hr 0.00 in0.0 mm
03:20 AM 36.4°F2.4°C 31.2°F-0.4°C 81% 6.9 mph SW11.1 kmh SW 9.2 mph14.8 kmh 29.44 in997.0 mb 0.00 in0.0 mm 0.00 in/hr0.0 mm/hr 0.00 in0.0 mm
03:10 AM 36.5°F2.5°C 31.2°F-0.4°C 81% 5.8 mph S9.3 kmh S 10.4 mph16.7 kmh 29.44 in997.0 mb 0.00 in0.0 mm 0.00 in/hr0.0 mm/hr 0.00 in0.0 mm
03:00 AM 36.5°F2.5°C 31.2°F-0.4°C 81% 5.8 mph SSW9.3 kmh SSW 12.7 mph20.4 kmh 29.45 in997.3 mb 0.00 in0.0 mm 0.00 in/hr0.0 mm/hr 0.00 in0.0 mm
02:50 AM 36.4°F2.4°C 31.1°F-0.5°C 81% 5.8 mph S9.3 kmh S 10.4 mph16.7 kmh 29.45 in997.3 mb 0.00 in0.0 mm 0.00 in/hr0.0 mm/hr 0.00 in0.0 mm
02:40 AM 36.4°F2.4°C 31.1°F-0.5°C 81% 6.9 mph SSW11.1 kmh SSW 9.2 mph14.8 kmh 29.45 in997.3 mb 0.00 in0.0 mm 0.00 in/hr0.0 mm/hr 0.00 in0.0 mm
02:30 AM 36.5°F2.5°C 31.2°F-0.4°C 81% 8.1 mph SSW13.0 kmh SSW 11.5 mph18.5 kmh 29.46 in997.6 mb 0.00 in0.0 mm 0.00 in/hr0.0 mm/hr 0.00 in0.0 mm
02:20 AM 36.5°F2.5°C 31.2°F-0.4°C 81% 4.6 mph SW7.4 kmh SW 9.2 mph14.8 kmh 29.46 in997.6 mb 0.00 in0.0 mm 0.00 in/hr0.0 mm/hr 0.00 in0.0 mm
02:10 AM 36.6°F2.6°C 31.3°F-0.4°C 81% 6.9 mph SSW11.1 kmh SSW 10.4 mph16.7 kmh 29.47 in998.0 mb 0.00 in0.0 mm 0.00 in/hr0.0 mm/hr 0.00 in0.0 mm
02:00 AM 36.7°F2.6°C 31.1°F-0.5°C 80% 8.1 mph SSW13.0 kmh SSW 12.7 mph20.4 kmh 29.47 in998.0 mb 0.00 in0.0 mm 0.00 in/hr0.0 mm/hr 0.00 in0.0 mm
01:50 AM 36.8°F2.7°C 31.3°F-0.4°C 80% 5.8 mph SSW9.3 kmh SSW 6.9 mph11.1 kmh 29.48 in998.3 mb 0.00 in0.0 mm 0.00 in/hr0.0 mm/hr 0.00 in0.0 mm
01:40 AM 36.9°F2.7°C 31.3°F-0.4°C 80% 9.2 mph SW14.8 kmh SW 12.7 mph20.4 kmh 29.48 in998.3 mb 0.00 in0.0 mm 0.00 in/hr0.0 mm/hr 0.00 in0.0 mm
01:30 AM 37.0°F2.8°C 31.1°F-0.5°C 79% 8.1 mph SW13.0 kmh SW 12.7 mph20.4 kmh 29.49 in998.6 mb 0.00 in0.0 mm 0.00 in/hr0.0 mm/hr 0.00 in0.0 mm
01:20 AM 37.3°F2.9°C 31.1°F-0.5°C 78% 8.1 mph SW13.0 kmh SW 16.1 mph25.9 kmh 29.50 in999.0 mb 0.00 in0.0 mm 0.00 in/hr0.0 mm/hr 0.00 in0.0 mm
01:10 AM 37.8°F3.2°C 30.9°F-0.6°C 76% 4.6 mph S7.4 kmh S 8.1 mph13.0 kmh 29.50 in999.0 mb 0.00 in0.0 mm 0.00 in/hr0.0 mm/hr 0.00 in0.0 mm
01:00 AM 38.4°F3.6°C 31.2°F-0.4°C 75% 5.8 mph SW9.3 kmh SW 8.1 mph13.0 kmh 29.50 in999.0 mb 0.00 in0.0 mm 0.00 in/hr0.0 mm/hr 0.00 in0.0 mm
12:50 AM 38.9°F3.8°C 31.3°F-0.4°C 74% 5.8 mph SSW9.3 kmh SSW 8.1 mph13.0 kmh 29.51 in999.3 mb 0.00 in0.0 mm 0.00 in/hr0.0 mm/hr 0.00 in0.0 mm
12:40 AM 39.0°F3.9°C 31.4°F-0.3°C 74% 4.6 mph W7.4 kmh W 6.9 mph11.1 kmh 29.51 in999.3 mb 0.00 in0.0 mm 0.00 in/hr0.0 mm/hr 0.00 in0.0 mm
12:30 AM 39.4°F4.1°C 31.4°F-0.3°C 73% 4.6 mph SW7.4 kmh SW 6.9 mph11.1 kmh 29.52 in999.7 mb 0.00 in0.0 mm 0.00 in/hr0.0 mm/hr 0.00 in0.0 mm
12:20 AM 39.5°F4.2°C 31.6°F-0.2°C 73% 4.6 mph SW7.4 kmh SW 13.8 mph22.2 kmh 29.52 in999.7 mb 0.00 in0.0 mm 0.00 in/hr0.0 mm/hr 0.00 in0.0 mm
12:10 AM 39.6°F4.2°C 31.3°F-0.4°C 72% 4.6 mph SW7.4 kmh SW 11.5 mph18.5 kmh 29.52 in999.7 mb 0.00 in0.0 mm 0.00 in/hr0.0 mm/hr 0.00 in0.0 mm
12:00 AM 39.8°F4.3°C 31.5°F-0.3°C 72% 4.6 mph SW7.4 kmh SW 6.9 mph11.1 kmh 29.52 in999.7 mb 0.00 in0.0 mm 0.00 in/hr0.0 mm/hr 0.00 in0.0 mm